Stations météo

réclame
Mon MeteoGroup
Epinal, France (7173): Température de l'air & dewpoint: 18.10.2018 07:00:00 - 24.10.2018 07:00:00 (CEST)Epinal, France (7173): Vitesse du vent & gusts: 18.10.2018 07:00:00 - 24.10.2018 07:00:00 (CEST)Epinal, France (7173): Direction du vent: 18.10.2018 07:00:00 - 24.10.2018 07:00:00 (CEST)Epinal, France (7173): Ensoleillement: 18.10.2018 07:00:00 - 24.10.2018 07:00:00 (CEST)Epinal, France (7173): Quantités de précipitations: 18.10.2018 07:00:00 - 24.10.2018 07:00:00 (CEST)
Date & Time tt [°C] td [°C] ff [km/h] ff [knt] fx [km/h] fx [knt] dd sd [min] rr [mm]
24.10.2018 07:00:00 - - - - - - - - -
24.10.2018 06:00:00 5,7 3,7 8 4 11 6 SSW 0 0,0
24.10.2018 05:00:00 5,3 3,5 2 1 4 2 S 0 0,0
24.10.2018 04:00:00 6,0 3,5 0 0 13 7 N 0 0,0
24.10.2018 03:00:00 6,9 4,0 8 4 13 7 S 0 0,0
24.10.2018 02:00:00 6,8 3,8 4 2 9 5 S 0 -
24.10.2018 01:00:00 7,1 3,2 2 1 9 5 S 0 0,0
24.10.2018 00:00:00 9,4 4,0 5 3 13 7 SSE 0 0,0
23.10.2018 23:00:00 10,5 4,0 8 4 15 8 S 0 0,0
23.10.2018 22:00:00 10,6 4,1 8 4 13 7 S 0 0,0
23.10.2018 21:00:00 9,9 3,6 11 6 15 8 SSW 0 0,0
23.10.2018 20:00:00 9,6 3,6 5 3 13 7 SW 0 -
23.10.2018 19:00:00 12,2 3,4 8 4 16 9 SSW 6 0,0
23.10.2018 18:00:00 13,4 3,7 11 6 21 11 SW 36 0,0
23.10.2018 17:00:00 14,5 3,0 13 7 24 13 SW 30 0,0
23.10.2018 16:00:00 14,3 3,4 13 7 24 13 SW 12 0,0
23.10.2018 15:00:00 13,7 4,0 11 6 24 13 SW 48 0,0
23.10.2018 14:00:00 13,1 5,0 4 2 15 8 SSW 24 -
23.10.2018 13:00:00 11,6 5,5 4 2 11 6 N 18 0,0
23.10.2018 12:00:00 10,6 6,2 4 2 8 4 WNW 60 0,0
23.10.2018 11:00:00 8,1 5,9 4 2 8 4 SSE 36 0,0
23.10.2018 10:00:00 6,6 6,5 0 0 2 1 N 12 0,0
23.10.2018 09:00:00 4,1 4,0 0 0 5 3 N 0 0,0
23.10.2018 08:00:00 2,9 2,6 4 2 5 3 S 0 -
23.10.2018 07:00:00 3,2 2,8 0 0 4 2 N 0 0,0
23.10.2018 06:00:00 5,0 4,3 4 2 9 5 SE 0 0,0
23.10.2018 05:00:00 6,0 5,1 4 2 9 5 WNW 0 0,0
23.10.2018 04:00:00 8,1 5,7 0 0 5 3 N 0 0,0
23.10.2018 03:00:00 10,6 6,7 4 2 15 8 NE 0 0,0
23.10.2018 02:00:00 11,1 7,4 8 4 18 10 NNE 0 -
23.10.2018 01:00:00 11,1 7,4 11 6 28 15 NNE 0 0,0
23.10.2018 00:00:00 11,2 7,3 13 7 26 14 N 0 0,0
22.10.2018 23:00:00 11,9 7,2 15 8 24 13 NNE 0 0,0
22.10.2018 22:00:00 12,0 6,9 9 5 24 13 NNE 0 0,0
22.10.2018 21:00:00 13,3 6,2 18 10 31 17 NNE 0 0,0
22.10.2018 20:00:00 13,6 3,1 8 4 13 7 N 0 -
22.10.2018 19:00:00 14,4 2,9 9 5 28 15 NNE 6 0,0
22.10.2018 18:00:00 14,9 2,4 18 10 35 19 N 48 0,0
22.10.2018 17:00:00 15,9 1,6 22 12 39 21 NNE 60 0,0
22.10.2018 16:00:00 16,3 1,2 21 11 35 19 N 60 0,0
22.10.2018 15:00:00 16,4 0,9 21 11 37 20 NNE 60 0,0
22.10.2018 14:00:00 15,2 2,4 21 11 35 19 N 60 -
22.10.2018 13:00:00 14,1 2,3 18 10 29 16 N 36 0,0
22.10.2018 12:00:00 12,1 3,3 13 7 22 12 N 48 0,0
22.10.2018 11:00:00 9,3 3,9 5 3 13 7 ENE 60 0,0
22.10.2018 10:00:00 5,6 3,3 5 3 9 5 NNE 60 0,0
22.10.2018 09:00:00 2,8 2,4 4 2 5 3 ESE 18 0,0
22.10.2018 08:00:00 1,6 1,3 2 1 9 5 ESE 0 -
22.10.2018 07:00:00 0,2 -0,2 5 3 8 4 NNW 0 0,0
22.10.2018 06:00:00 1,0 0,6 0 0 5 3 N 0 0,0
22.10.2018 05:00:00 1,1 0,7 0 0 5 3 N 0 0,0
22.10.2018 04:00:00 2,1 1,7 0 0 4 2 N 0 0,0
22.10.2018 03:00:00 2,4 2,0 0 0 4 2 N 0 0,0
22.10.2018 02:00:00 3,4 2,8 2 1 4 2 ESE 0 -
22.10.2018 01:00:00 3,6 2,6 0 0 4 2 N 0 0,0
22.10.2018 00:00:00 4,9 3,7 2 1 4 2 E 0 0,0
21.10.2018 23:00:00 5,9 4,1 2 1 4 2 ESE 0 0,0
21.10.2018 22:00:00 7,6 4,7 4 2 9 5 ESE 0 0,0
21.10.2018 21:00:00 10,2 4,8 4 2 13 7 NE 0 0,0
21.10.2018 20:00:00 12,0 4,7 5 3 16 9 NNE 0 -
21.10.2018 19:00:00 13,8 5,2 13 7 22 12 NNE 12 0,0
21.10.2018 18:00:00 16,0 5,9 11 6 26 14 NNE 60 0,0
21.10.2018 17:00:00 17,3 5,2 13 7 28 15 NNE 60 0,0
21.10.2018 16:00:00 17,6 5,8 13 7 22 12 N 60 0,0
21.10.2018 15:00:00 16,9 6,7 13 7 22 12 NNE 60 0,0
21.10.2018 14:00:00 15,3 6,8 8 4 16 9 NNE 60 -
21.10.2018 13:00:00 11,2 7,9 4 2 8 4 WNW 54 0,0
21.10.2018 12:00:00 7,2 7,2 5 3 9 5 NNW 0 0,0
21.10.2018 11:00:00 5,9 5,9 0 0 8 4 N 0 0,0
21.10.2018 10:00:00 4,8 4,8 4 2 8 4 NNE 0 0,0
21.10.2018 09:00:00 4,2 4,2 0 0 8 4 N 0 0,0
21.10.2018 08:00:00 4,6 4,6 4 2 8 4 NE 0 -
21.10.2018 07:00:00 4,4 4,4 0 0 2 1 N 0 0,0
21.10.2018 06:00:00 3,3 3,3 0 0 4 2 N 0 0,0
21.10.2018 05:00:00 3,4 3,4 0 0 2 1 N 0 0,0
21.10.2018 04:00:00 3,5 3,5 0 0 4 2 N 0 0,0
21.10.2018 03:00:00 4,8 4,8 0 0 2 1 N 0 0,0
21.10.2018 02:00:00 4,2 3,9 0 0 4 2 N 0 -
21.10.2018 01:00:00 5,2 4,8 0 0 5 3 N 0 0,0
21.10.2018 00:00:00 6,8 6,4 2 1 5 3 E 0 0,0
20.10.2018 23:00:00 7,9 7,1 0 0 4 2 N 0 0,0
20.10.2018 22:00:00 8,6 7,7 2 1 4 2 N 0 0,0
20.10.2018 21:00:00 9,6 7,9 0 0 5 3 N 0 0,0
20.10.2018 20:00:00 12,5 9,0 4 2 13 7 ENE 0 -
20.10.2018 19:00:00 14,4 9,4 5 3 16 9 NNE 12 0,0
20.10.2018 18:00:00 16,9 9,8 11 6 28 15 N 54 0,0
20.10.2018 17:00:00 18,2 10,1 15 8 24 13 N 60 0,0
20.10.2018 16:00:00 18,2 10,6 15 8 29 16 NNE 60 0,0
20.10.2018 15:00:00 16,6 10,7 13 7 21 11 N 60 0,0
20.10.2018 14:00:00 13,3 10,5 4 2 15 8 NNE 18 -
20.10.2018 13:00:00 10,2 9,7 4 2 11 6 NE 0 0,0
20.10.2018 12:00:00 9,1 9,1 4 2 9 5 NNE 0 0,0
20.10.2018 11:00:00 8,2 8,2 4 2 9 5 N 0 0,0
20.10.2018 10:00:00 7,4 7,4 2 1 9 5 NNE 0 0,0
20.10.2018 09:00:00 7,5 7,5 4 2 11 6 E 0 0,0
20.10.2018 08:00:00 7,4 7,4 4 2 5 3 N 0 -
20.10.2018 07:00:00 6,9 6,9 0 0 4 2 N 0 0,0
20.10.2018 06:00:00 5,5 5,4 0 0 4 2 N 0 0,0
20.10.2018 05:00:00 4,7 4,6 0 0 4 2 N 0 0,0
20.10.2018 04:00:00 4,9 4,8 0 0 5 3 N 0 0,0
20.10.2018 03:00:00 6,0 5,9 4 2 5 3 ESE 0 0,0
20.10.2018 02:00:00 5,5 5,4 0 0 5 3 N 0 -
20.10.2018 01:00:00 6,7 6,3 2 1 4 2 SE 0 0,0
20.10.2018 00:00:00 7,0 6,6 0 0 5 3 N 0 0,0
19.10.2018 23:00:00 8,3 7,4 4 2 4 2 SE 0 0,0
19.10.2018 22:00:00 8,9 7,3 0 0 4 2 N 0 0,0
19.10.2018 21:00:00 10,4 8,5 0 0 4 2 N 0 0,0
19.10.2018 20:00:00 12,5 9,3 0 0 5 3 N 0 -
19.10.2018 19:00:00 15,6 9,7 0 0 21 11 N 12 0,0
19.10.2018 18:00:00 19,0 10,3 11 6 22 12 N 60 0,0
19.10.2018 17:00:00 19,9 10,3 16 9 26 14 N 60 0,0
19.10.2018 16:00:00 20,3 10,4 16 9 26 14 N 60 0,0
19.10.2018 15:00:00 20,2 10,9 9 5 21 11 N 60 0,0
19.10.2018 14:00:00 19,2 11,0 11 6 21 11 N 60 -
19.10.2018 13:00:00 17,4 11,4 4 2 16 9 NE 60 0,0
19.10.2018 12:00:00 12,1 10,7 4 2 11 6 N 0 0,0
19.10.2018 11:00:00 10,0 9,8 4 2 11 6 NNE 0 0,0
19.10.2018 10:00:00 9,6 9,6 8 4 11 6 N 0 0,0
19.10.2018 09:00:00 9,3 9,3 2 1 5 3 N 0 0,0
19.10.2018 08:00:00 9,0 9,0 4 2 8 4 NE 0 -
19.10.2018 07:00:00 8,0 8,0 0 0 4 2 N 0 0,0
19.10.2018 06:00:00 7,1 7,1 0 0 5 3 N 0 0,0
19.10.2018 05:00:00 6,9 6,5 2 1 8 4 E 0 0,0
19.10.2018 04:00:00 7,7 7,4 0 0 4 2 N 0 0,0
19.10.2018 03:00:00 7,9 7,5 0 0 4 2 N 0 0,0
19.10.2018 02:00:00 9,1 8,8 2 1 4 2 E 0 -
19.10.2018 01:00:00 9,3 8,5 2 1 4 2 SSW 0 0,0
19.10.2018 00:00:00 11,6 9,8 5 3 11 6 N 0 0,0
18.10.2018 23:00:00 12,4 9,9 8 4 16 9 WNW 0 0,0
18.10.2018 22:00:00 14,9 9,9 8 4 15 8 NNE 0 0,0
18.10.2018 21:00:00 15,0 9,6 8 4 13 7 NNE 0 0,0
18.10.2018 20:00:00 16,9 9,8 8 4 16 9 NNE 0 -
18.10.2018 19:00:00 18,7 10,0 8 4 28 15 NNE 18 0,0
18.10.2018 18:00:00 20,5 10,3 18 10 31 17 NNE 60 0,0
18.10.2018 17:00:00 21,7 10,2 21 11 34 18 NNE 60 0,0
18.10.2018 16:00:00 22,8 8,9 15 8 29 16 NNE 60 0,0
18.10.2018 15:00:00 21,9 9,4 15 8 26 14 NNE 60 0,0
18.10.2018 14:00:00 20,8 9,7 15 8 28 15 NNE 60 -
18.10.2018 13:00:00 18,4 9,7 11 6 21 11 NNE 60 0,0
18.10.2018 12:00:00 16,6 10,0 9 5 16 9 NNE 60 0,0
18.10.2018 11:00:00 13,3 9,4 11 6 15 8 NNE 60 0,0
18.10.2018 10:00:00 9,5 8,9 0 0 0 0 N 36 0,0
18.10.2018 09:00:00 5,8 5,5 0 0 2 1 N 0 0,0
18.10.2018 08:00:00 5,3 5,0 0 0 4 2 N 0 -
18.10.2018 07:00:00 6,0 5,7 2 1 4 2 SE 0 0,0

tt = Température de l'air
td = dewpoint
ff = Vitesse du vent
fx = gusts
dd = Direction du vent
sd = Ensoleillement
rr = Quantités de précipitations

stations d'obs. à proximité